Alvord, Texas
Current Conditions -  °F | °C
As of 12:15 PM on Friday 24 Oct 2014 (Local Time) from KLUD Reporting Station
Clear Clear  
Wind Chill: 77°   Ceiling: Unl
Heat Index: 79°   Visibility: 10mi
Dew Point: 60°   Wind: 7mph
Humidity: 55%   Direction: 210°SSW
Pressure: 30.15"   Gusts: NA
Location:  33.36°N, 97.69°W
Report Text: KLUD 241715Z AUTO 21006KT 10SM CLR 25/15 A3015 RMK AO2 T02490154
Loading
Personal Weather Stations






























Interactive Weather Map
Tropical Storm Tracking
New forecast layout! Learn more

10-Day Weather Forecast

Advertisements
Track Severe Weather on mobile